CAMP SANTIAGO PR US current weather conditions

sailwx.info

Wind from 069 at 4 knots gusting 11

Air temperature 28.3° C
Dewpoint 20.1° C

Last reported at 2020-Jul-15 00:09 UTC.
Time now 2020-Jul-15 01:59 UTC

Location: N 18°00' W 066°17'.
View on Google Maps.

See reports from other nearby stations

  
Tides and Currents Weather Stations Pressure Air Temp Water Temp Dewpoint Dewpoint Depression Visibility Wind Speed Wind Dir Waves Ship Positions
date/time (UTC)wind fromknots sea level pressurealtimeterstation pressurevisibilityair tempwater tempwave heightnotes
2020-Jul-15 00:09 069 4 gusting 11 28.3
2020-Jul-14 23:09 098 8 gusting 17 29.4
2020-Jul-14 22:09 103 12 gusting 20 31.1
2020-Jul-14 21:09 112 15 gusting 22 31.7
2020-Jul-14 20:09 121 15 gusting 22 32.2
2020-Jul-14 19:09 130 16 gusting 23 32.2
2020-Jul-14 18:09 133 16 gusting 22 32.2
2020-Jul-14 13:09
2020-Jul-14 12:09 063 29.4
2020-Jul-14 11:09
2020-Jul-14 10:09
2020-Jul-14 09:09 26.7
2020-Jul-14 08:09 036 6 27.2
2020-Jul-14 07:09 27.2
2020-Jul-14 06:09
2020-Jul-14 05:09 020 4 27.2
2020-Jul-14 04:09 046 2 gusting 4 27.8
2020-Jul-14 03:09 068 3 gusting 6 27.8
2020-Jul-14 02:09 064 4 gusting 9 28.3
2020-Jul-14 01:09 070 3 gusting 8 28.9
2020-Jul-14 00:09 092 6 gusting 12 28.9
2020-Jul-13 23:09 106 8 gusting 13 29.4
2020-Jul-13 22:09 115 10 gusting 19 30.6
2020-Jul-13 21:09 112 12 gusting 19 31.7
2020-Jul-13 20:09 108 15 gusting 20 32.8
2020-Jul-13 19:09 087 12 gusting 23 33.3
2020-Jul-13 18:09 111 16 gusting 24 32.8
2020-Jul-13 17:09 108 13 gusting 22 33.9
2020-Jul-13 16:09 076 9 gusting 25 31.7
2020-Jul-13 15:09 105 13 gusting 21 32.8
2020-Jul-13 14:09 115 12 gusting 18 32.2
2020-Jul-13 13:09 090 12 gusting 17 31.7
2020-Jul-13 12:09 092 6 gusting 15 28.9
2020-Jul-13 11:09 060 2 gusting 5 28.3
2020-Jul-13 10:09 029 4 gusting 6 27.8
2020-Jul-13 09:09 011 4 gusting 6 27.2
2020-Jul-13 08:09 016 3 gusting 6 27.2
2020-Jul-13 07:09 028 2 gusting 6 27.2
2020-Jul-13 06:09 053 4 gusting 8 27.8
2020-Jul-13 05:09 039 4 gusting 6 27.2
2020-Jul-13 04:09 077 3 gusting 6 27.2
2020-Jul-13 03:09 071 3 gusting 11 27.8
2020-Jul-13 02:09 093 4 gusting 9 27.8
2020-Jul-13 01:09 096 6 gusting 9 28.3